PWSweather.com
Personal Weather Stations
Station Observations
KPAAUBUR15
Lake Wynonah, Auburn, PA 17922

Lake WynonahAuburn, PA 17922

Lat: 40.582723, Lon: -76.193106

Elevation: 724

Station Type: Davis Vantage Pro2

http://WynonahWeather.com

High Low Average
Temperature 37.9°F3.3°C 27.8°F-2.3°C 32.9°F0.5°C
Dew Point 36.1°F2.3°C 19.9°F-6.7°C 28.9°F-1.7°C
Winds 9.2 mph 14.8 kmh Calm Calm 3.0 mph SW4.8 kmh SW
Wind Gusts 15.0 mph24.1 kmh -- 5.0 mph8.0 kmh
Humidity 98% 70% 86%
Pressure 30.36 in1028.1 mb 29.72 in1006.4 mb -
Precipitation 0.07 in1.8 mm - -
Hour Temp Dew Point Humidity Winds Wind Gusts Pressure Precip Precip Rate Daily Precip Total
12:00 AM 31.6°F-0.2°C 29.5°F-1.4°C 92% Calm Calm -- 29.90 in1012.5 mb - 0.00 in0.0 mm 0.00 in0.0 mm
12:05 AM 31.6°F-0.2°C 29.5°F-1.4°C 92% Calm Calm -- 29.89 in1012.2 mb - 0.00 in0.0 mm 0.00 in0.0 mm
12:10 AM 31.6°F-0.2°C 29.6°F-1.3°C 92% Calm Calm -- 29.89 in1012.2 mb - 0.00 in0.0 mm 0.00 in0.0 mm
12:15 AM 31.7°F-0.2°C 29.9°F-1.2°C 93% 1.2 mph SE1.9 kmh SE 1.2 mph1.9 kmh 29.88 in1011.9 mb - 0.00 in0.0 mm 0.00 in0.0 mm
12:20 AM 31.7°F-0.2°C 29.9°F-1.2°C 93% Calm Calm -- 29.87 in1011.5 mb - 0.00 in0.0 mm 0.00 in0.0 mm
12:25 AM 31.9°F-0.1°C 30.1°F-1.1°C 93% Calm Calm -- 29.87 in1011.5 mb - 0.00 in0.0 mm 0.00 in0.0 mm
12:30 AM 32.0°F0.0°C 30.5°F-0.8°C 94% Calm Calm -- 29.87 in1011.5 mb - 0.00 in0.0 mm 0.00 in0.0 mm
12:35 AM 32.1°F0.1°C 30.5°F-0.8°C 94% Calm Calm 1.2 mph1.9 kmh 29.87 in1011.5 mb - 0.00 in0.0 mm 0.00 in0.0 mm
12:40 AM 32.1°F0.1°C 30.6°F-0.8°C 94% 2.3 mph SE3.7 kmh SE 2.3 mph3.7 kmh 29.87 in1011.5 mb - 0.00 in0.0 mm 0.00 in0.0 mm
12:45 AM 32.1°F0.1°C 30.5°F-0.8°C 94% 3.5 mph E5.6 kmh E 4.6 mph7.4 kmh 29.86 in1011.2 mb - 0.00 in0.0 mm 0.00 in0.0 mm
12:50 AM 32.1°F0.1°C 30.5°F-0.8°C 94% Calm Calm 1.2 mph1.9 kmh 29.86 in1011.2 mb - 0.00 in0.0 mm 0.00 in0.0 mm
12:55 AM 32.1°F0.1°C 30.6°F-0.8°C 94% 1.2 mph SE1.9 kmh SE 4.6 mph7.4 kmh 29.86 in1011.2 mb - 0.00 in0.0 mm 0.00 in0.0 mm
01:00 AM 32.3°F0.2°C 31.0°F-0.6°C 95% 1.2 mph ESE1.9 kmh ESE 2.3 mph3.7 kmh 29.85 in1010.8 mb - 0.00 in0.0 mm 0.00 in0.0 mm
01:05 AM 32.3°F0.2°C 31.0°F-0.6°C 95% Calm Calm -- 29.86 in1011.2 mb - 0.00 in0.0 mm 0.00 in0.0 mm
01:10 AM 32.3°F0.2°C 31.0°F-0.6°C 95% 1.2 mph NE1.9 kmh NE 1.2 mph1.9 kmh 29.86 in1011.2 mb - 0.00 in0.0 mm 0.00 in0.0 mm
01:15 AM 32.3°F0.2°C 31.0°F-0.6°C 95% Calm Calm -- 29.87 in1011.5 mb - 0.00 in0.0 mm 0.00 in0.0 mm
01:20 AM 32.3°F0.2°C 31.0°F-0.6°C 95% Calm Calm -- 29.86 in1011.2 mb - 0.00 in0.0 mm 0.00 in0.0 mm
01:25 AM 32.4°F0.2°C 31.1°F-0.5°C 95% 1.2 mph SE1.9 kmh SE 2.3 mph3.7 kmh 29.85 in1010.8 mb - 0.00 in0.0 mm 0.00 in0.0 mm
01:30 AM 32.6°F0.3°C 31.3°F-0.4°C 95% 1.2 mph SE1.9 kmh SE 2.3 mph3.7 kmh 29.84 in1010.5 mb - 0.00 in0.0 mm 0.00 in0.0 mm
01:35 AM 32.6°F0.3°C 31.3°F-0.4°C 95% 3.5 mph ENE5.6 kmh ENE 3.5 mph5.6 kmh 29.84 in1010.5 mb - 0.00 in0.0 mm 0.00 in0.0 mm
01:40 AM 32.5°F0.3°C 31.2°F-0.4°C 95% Calm Calm -- 29.85 in1010.8 mb - 0.00 in0.0 mm 0.00 in0.0 mm
01:45 AM 32.5°F0.3°C 31.2°F-0.4°C 95% 1.2 mph ENE1.9 kmh ENE 2.3 mph3.7 kmh 29.86 in1011.2 mb - 0.00 in0.0 mm 0.00 in0.0 mm
01:50 AM 32.5°F0.3°C 31.5°F-0.3°C 96% 1.2 mph ENE1.9 kmh ENE -- 29.86 in1011.2 mb - 0.00 in0.0 mm 0.00 in0.0 mm
01:55 AM 32.5°F0.3°C 31.3°F-0.4°C 95% 2.3 mph ENE3.7 kmh ENE 2.3 mph3.7 kmh 29.83 in1010.2 mb - 0.00 in0.0 mm 0.00 in0.0 mm
02:00 AM 32.6°F0.3°C 31.6°F-0.2°C 96% 3.5 mph NE5.6 kmh NE 3.5 mph5.6 kmh 29.84 in1010.5 mb - 0.00 in0.0 mm 0.00 in0.0 mm
02:05 AM 32.6°F0.3°C 31.6°F-0.2°C 96% Calm Calm -- 29.83 in1010.2 mb - 0.00 in0.0 mm 0.00 in0.0 mm
02:10 AM 32.7°F0.4°C 31.7°F-0.2°C 96% Calm Calm -- 29.85 in1010.8 mb - 0.00 in0.0 mm 0.00 in0.0 mm
02:15 AM 32.7°F0.4°C 31.7°F-0.2°C 96% Calm Calm -- 29.84 in1010.5 mb - 0.00 in0.0 mm 0.00 in0.0 mm
02:20 AM 32.8°F0.4°C 31.8°F-0.1°C 96% Calm Calm -- 29.83 in1010.2 mb - 0.00 in0.0 mm 0.00 in0.0 mm
02:25 AM 32.8°F0.4°C 31.8°F-0.1°C 96% Calm Calm -- 29.83 in1010.2 mb - 0.00 in0.0 mm 0.00 in0.0 mm
02:30 AM 32.8°F0.4°C 31.8°F-0.1°C 96% Calm Calm -- 29.83 in1010.2 mb - 0.00 in0.0 mm 0.00 in0.0 mm
02:35 AM 32.8°F0.4°C 31.8°F-0.1°C 96% Calm Calm -- 29.83 in1010.2 mb - 0.00 in0.0 mm 0.00 in0.0 mm
02:40 AM 32.8°F0.4°C 31.8°F-0.1°C 96% Calm Calm -- 29.83 in1010.2 mb - 0.00 in0.0 mm 0.00 in0.0 mm
02:45 AM 32.8°F0.4°C 31.8°F-0.1°C 96% Calm Calm -- 29.82 in1009.8 mb - 0.00 in0.0 mm 0.00 in0.0 mm
02:50 AM 32.9°F0.5°C 31.9°F-0.1°C 96% Calm Calm -- 29.83 in1010.2 mb - 0.00 in0.0 mm 0.00 in0.0 mm
02:55 AM 32.9°F0.5°C 31.9°F-0.1°C 96% Calm Calm 2.3 mph3.7 kmh 29.82 in1009.8 mb - 0.00 in0.0 mm 0.00 in0.0 mm
03:00 AM 32.9°F0.5°C 31.9°F-0.1°C 96% 2.3 mph SE3.7 kmh SE 3.5 mph5.6 kmh 29.81 in1009.5 mb - 0.00 in0.0 mm 0.00 in0.0 mm
03:05 AM 32.9°F0.5°C 31.9°F-0.1°C 96% 3.5 mph ENE5.6 kmh ENE 6.9 mph11.1 kmh 29.79 in1008.8 mb - 0.00 in0.0 mm 0.00 in0.0 mm
03:10 AM 32.9°F0.5°C 31.9°F-0.1°C 96% Calm Calm -- 29.78 in1008.5 mb - 0.00 in0.0 mm 0.00 in0.0 mm
03:15 AM 32.9°F0.5°C 31.9°F-0.1°C 96% 3.5 mph E5.6 kmh E 3.5 mph5.6 kmh 29.80 in1009.1 mb - 0.00 in0.0 mm 0.00 in0.0 mm
03:20 AM 32.8°F0.4°C 31.8°F-0.1°C 96% Calm Calm -- 29.79 in1008.8 mb - 0.00 in0.0 mm 0.00 in0.0 mm
03:25 AM 32.8°F0.4°C 31.8°F-0.1°C 96% Calm Calm -- 29.82 in1009.8 mb - 0.00 in0.0 mm 0.00 in0.0 mm
03:30 AM 32.8°F0.4°C 31.8°F-0.1°C 96% Calm Calm -- 29.79 in1008.8 mb - 0.00 in0.0 mm 0.00 in0.0 mm
03:35 AM 32.8°F0.4°C 31.8°F-0.1°C 96% Calm Calm 2.3 mph3.7 kmh 29.79 in1008.8 mb - 0.00 in0.0 mm 0.00 in0.0 mm
03:40 AM 32.9°F0.5°C 31.9°F-0.1°C 96% Calm Calm -- 29.79 in1008.8 mb - 0.00 in0.0 mm 0.00 in0.0 mm
03:45 AM 32.9°F0.5°C 31.9°F-0.1°C 96% Calm Calm -- 29.81 in1009.5 mb - 0.00 in0.0 mm 0.00 in0.0 mm
03:50 AM 33.0°F0.6°C 32.0°F0.0°C 96% Calm Calm -- 29.80 in1009.1 mb - 0.00 in0.0 mm 0.00 in0.0 mm
03:55 AM 33.0°F0.6°C 32.0°F0.0°C 96% Calm Calm -- 29.79 in1008.8 mb - 0.00 in0.0 mm 0.00 in0.0 mm
04:00 AM 33.0°F0.6°C 32.0°F0.0°C 96% Calm Calm -- 29.79 in1008.8 mb - 0.00 in0.0 mm 0.00 in0.0 mm
04:05 AM 32.9°F0.5°C 31.9°F-0.1°C 96% Calm Calm -- 29.79 in1008.8 mb - 0.00 in0.0 mm 0.00 in0.0 mm
04:10 AM 32.9°F0.5°C 31.9°F-0.1°C 96% Calm Calm 3.5 mph5.6 kmh 29.76 in1007.8 mb - 0.00 in0.0 mm 0.00 in0.0 mm
04:15 AM 32.9°F0.5°C 31.9°F-0.1°C 96% Calm Calm -- 29.72 in1006.4 mb - 0.00 in0.0 mm 0.00 in0.0 mm
04:20 AM 32.9°F0.5°C 31.9°F-0.1°C 96% Calm Calm -- 29.77 in1008.1 mb - 0.00 in0.0 mm 0.00 in0.0 mm
04:25 AM 32.8°F0.4°C 31.8°F-0.1°C 96% Calm Calm -- 29.78 in1008.5 mb - 0.00 in0.0 mm 0.00 in0.0 mm
04:30 AM 32.8°F0.4°C 31.8°F-0.1°C 96% Calm Calm -- 29.76 in1007.8 mb - 0.00 in0.0 mm 0.00 in0.0 mm
04:35 AM 32.8°F0.4°C 31.8°F-0.1°C 96% Calm Calm -- 29.78 in1008.5 mb - 0.00 in0.0 mm 0.00 in0.0 mm
04:40 AM 32.8°F0.4°C 31.8°F-0.1°C 96% Calm Calm -- 29.77 in1008.1 mb - 0.00 in0.0 mm 0.00 in0.0 mm
04:45 AM 32.8°F0.4°C 31.8°F-0.1°C 96% Calm Calm -- 29.77 in1008.1 mb - 0.00 in0.0 mm 0.00 in0.0 mm
04:50 AM 32.8°F0.4°C 31.8°F-0.1°C 96% Calm Calm -- 29.77 in1008.1 mb - 0.00 in0.0 mm 0.00 in0.0 mm
04:55 AM 32.8°F0.4°C 32.0°F0.0°C 97% Calm Calm -- 29.79 in1008.8 mb - 0.00 in0.0 mm 0.00 in0.0 mm
05:00 AM 32.8°F0.4°C 32.0°F0.0°C 97% Calm Calm -- 29.77 in1008.1 mb - 0.00 in0.0 mm 0.00 in0.0 mm
05:05 AM 32.8°F0.4°C 32.1°F0.1°C 97% Calm Calm -- 29.77 in1008.1 mb - 0.00 in0.0 mm 0.00 in0.0 mm
05:10 AM 32.9°F0.5°C 32.1°F0.1°C 97% Calm Calm -- 29.77 in1008.1 mb - 0.00 in0.0 mm 0.00 in0.0 mm
05:15 AM 32.9°F0.5°C 32.1°F0.1°C 97% Calm Calm -- 29.77 in1008.1 mb - 0.00 in0.0 mm 0.00 in0.0 mm
05:20 AM 32.9°F0.5°C 32.1°F0.1°C 97% Calm Calm -- 29.77 in1008.1 mb - 0.00 in0.0 mm 0.00 in0.0 mm
05:25 AM 32.9°F0.5°C 32.1°F0.1°C 97% Calm Calm -- 29.76 in1007.8 mb - 0.00 in0.0 mm 0.00 in0.0 mm
05:30 AM 32.8°F0.4°C 32.1°F0.1°C 97% Calm Calm -- 29.77 in1008.1 mb - 0.00 in0.0 mm 0.00 in0.0 mm
05:35 AM 32.8°F0.4°C 32.1°F0.1°C 97% Calm Calm -- 29.77 in1008.1 mb - 0.00 in0.0 mm 0.00 in0.0 mm
05:40 AM 32.9°F0.5°C 32.1°F0.1°C 97% Calm Calm -- 29.78 in1008.5 mb - 0.00 in0.0 mm 0.00 in0.0 mm
05:45 AM 32.9°F0.5°C 32.1°F0.1°C 97% Calm Calm -- 29.78 in1008.5 mb - 0.00 in0.0 mm 0.00 in0.0 mm
05:50 AM 32.9°F0.5°C 32.1°F0.1°C 97% Calm Calm -- 29.78 in1008.5 mb - 0.00 in0.0 mm 0.00 in0.0 mm
05:55 AM 32.9°F0.5°C 32.1°F0.1°C 97% Calm Calm -- 29.78 in1008.5 mb - 0.00 in0.0 mm 0.00 in0.0 mm
06:00 AM 32.9°F0.5°C 32.1°F0.1°C 97% Calm Calm -- 29.78 in1008.5 mb - 0.00 in0.0 mm 0.00 in0.0 mm
06:05 AM 32.9°F0.5°C 32.1°F0.1°C 97% Calm Calm -- 29.78 in1008.5 mb - 0.00 in0.0 mm 0.00 in0.0 mm
06:10 AM 32.9°F0.5°C 32.1°F0.1°C 97% Calm Calm -- 29.77 in1008.1 mb - 0.00 in0.0 mm 0.00 in0.0 mm
06:15 AM 32.9°F0.5°C 32.1°F0.1°C 97% Calm Calm -- 29.77 in1008.1 mb - 0.00 in0.0 mm 0.00 in0.0 mm
06:20 AM 32.9°F0.5°C 32.1°F0.1°C 97% Calm Calm -- 29.78 in1008.5 mb - 0.00 in0.0 mm 0.00 in0.0 mm
06:25 AM 32.9°F0.5°C 32.1°F0.1°C 97% Calm Calm -- 29.78 in1008.5 mb - 0.00 in0.0 mm 0.00 in0.0 mm
06:30 AM 32.9°F0.5°C 32.1°F0.1°C 97% Calm Calm -- 29.77 in1008.1 mb - 0.00 in0.0 mm 0.00 in0.0 mm
06:35 AM 33.0°F0.6°C 32.2°F0.1°C 97% Calm Calm -- 29.77 in1008.1 mb - 0.00 in0.0 mm 0.00 in0.0 mm
06:40 AM 33.0°F0.6°C 32.2°F0.1°C 97% Calm Calm -- 29.77 in1008.1 mb - 0.00 in0.0 mm 0.00 in0.0 mm
06:45 AM 33.0°F0.6°C 32.2°F0.1°C 97% Calm Calm -- 29.77 in1008.1 mb - 0.00 in0.0 mm 0.00 in0.0 mm
06:50 AM 33.0°F0.6°C 32.2°F0.1°C 97% Calm Calm -- 29.77 in1008.1 mb - 0.00 in0.0 mm 0.00 in0.0 mm
06:55 AM 33.0°F0.6°C 32.2°F0.1°C 97% Calm Calm -- 29.77 in1008.1 mb - 0.00 in0.0 mm 0.00 in0.0 mm
07:00 AM 33.0°F0.6°C 32.2°F0.1°C 97% Calm Calm -- 29.77 in1008.1 mb - 0.00 in0.0 mm 0.00 in0.0 mm
07:05 AM 33.0°F0.6°C 32.2°F0.1°C 97% Calm Calm -- 29.78 in1008.5 mb - 0.00 in0.0 mm 0.00 in0.0 mm
07:10 AM 33.1°F0.6°C 32.3°F0.2°C 97% Calm Calm -- 29.77 in1008.1 mb - 0.00 in0.0 mm 0.00 in0.0 mm
07:15 AM 33.1°F0.6°C 32.6°F0.3°C 98% Calm Calm -- 29.77 in1008.1 mb - 0.00 in0.0 mm 0.00 in0.0 mm
07:20 AM 33.1°F0.6°C 32.6°F0.3°C 98% Calm Calm -- 29.77 in1008.1 mb - 0.00 in0.0 mm 0.00 in0.0 mm
07:25 AM 33.1°F0.6°C 32.6°F0.3°C 98% Calm Calm -- 29.78 in1008.5 mb - 0.00 in0.0 mm 0.00 in0.0 mm
07:30 AM 33.1°F0.6°C 32.6°F0.3°C 98% Calm Calm -- 29.77 in1008.1 mb - 0.00 in0.0 mm 0.00 in0.0 mm
07:35 AM 33.1°F0.6°C 32.6°F0.3°C 98% Calm Calm -- 29.77 in1008.1 mb - 0.00 in0.0 mm 0.00 in0.0 mm
07:40 AM 33.1°F0.6°C 32.6°F0.3°C 98% Calm Calm -- 29.78 in1008.5 mb - 0.00 in0.0 mm 0.00 in0.0 mm
07:45 AM 33.1°F0.6°C 32.6°F0.3°C 98% Calm Calm -- 29.78 in1008.5 mb - 0.00 in0.0 mm 0.00 in0.0 mm
07:50 AM 33.1°F0.6°C 32.6°F0.3°C 98% Calm Calm -- 29.77 in1008.1 mb - 0.00 in0.0 mm 0.00 in0.0 mm
07:55 AM 33.1°F0.6°C 32.6°F0.3°C 98% Calm Calm -- 29.78 in1008.5 mb - 0.00 in0.0 mm 0.00 in0.0 mm
08:00 AM 33.1°F0.6°C 32.6°F0.3°C 98% Calm Calm -- 29.78 in1008.5 mb - 0.00 in0.0 mm 0.00 in0.0 mm
08:05 AM 33.1°F0.6°C 32.6°F0.3°C 98% Calm Calm -- 29.78 in1008.5 mb - 0.00 in0.0 mm 0.00 in0.0 mm
08:10 AM 33.1°F0.6°C 32.6°F0.3°C 98% Calm Calm -- 29.79 in1008.8 mb - 0.00 in0.0 mm 0.00 in0.0 mm
08:15 AM 33.2°F0.7°C 32.7°F0.4°C 98% Calm Calm -- 29.79 in1008.8 mb - 0.00 in0.0 mm 0.00 in0.0 mm
08:20 AM 33.2°F0.7°C 32.7°F0.4°C 98% Calm Calm -- 29.79 in1008.8 mb - 0.00 in0.0 mm 0.00 in0.0 mm
08:25 AM 33.2°F0.7°C 32.7°F0.4°C 98% Calm Calm -- 29.79 in1008.8 mb - 0.00 in0.0 mm 0.00 in0.0 mm
08:30 AM 33.2°F0.7°C 32.7°F0.4°C 98% Calm Calm -- 29.79 in1008.8 mb - 0.00 in0.0 mm 0.00 in0.0 mm
08:35 AM 33.2°F0.7°C 32.7°F0.4°C 98% Calm Calm -- 29.79 in1008.8 mb - 0.00 in0.0 mm 0.00 in0.0 mm
08:40 AM 33.2°F0.7°C 32.7°F0.4°C 98% Calm Calm -- 29.79 in1008.8 mb - 0.00 in0.0 mm 0.00 in0.0 mm
08:45 AM 33.2°F0.7°C 32.7°F0.4°C 98% Calm Calm -- 29.79 in1008.8 mb - 0.00 in0.0 mm 0.00 in0.0 mm
08:50 AM 33.2°F0.7°C 32.7°F0.4°C 98% Calm Calm -- 29.80 in1009.1 mb - 0.00 in0.0 mm 0.00 in0.0 mm
08:55 AM 33.3°F0.7°C 32.8°F0.4°C 98% Calm Calm -- 29.80 in1009.1 mb - 0.00 in0.0 mm 0.00 in0.0 mm
09:00 AM 33.3°F0.7°C 32.8°F0.4°C 98% Calm Calm -- 29.81 in1009.5 mb - 0.00 in0.0 mm 0.00 in0.0 mm
09:05 AM 33.3°F0.7°C 32.8°F0.4°C 98% Calm Calm -- 29.81 in1009.5 mb - 0.00 in0.0 mm 0.00 in0.0 mm
09:10 AM 33.3°F0.7°C 32.8°F0.4°C 98% Calm Calm -- 29.81 in1009.5 mb - 0.00 in0.0 mm 0.00 in0.0 mm
09:15 AM 33.4°F0.8°C 32.9°F0.5°C 98% Calm Calm -- 29.81 in1009.5 mb - 0.00 in0.0 mm 0.00 in0.0 mm
09:20 AM 33.4°F0.8°C 32.9°F0.5°C 98% Calm Calm -- 29.82 in1009.8 mb - 0.00 in0.0 mm 0.00 in0.0 mm
09:25 AM 33.4°F0.8°C 32.9°F0.5°C 98% Calm Calm 1.2 mph1.9 kmh 29.82 in1009.8 mb - 0.00 in0.0 mm 0.00 in0.0 mm
09:30 AM 33.4°F0.8°C 32.9°F0.5°C 98% Calm Calm 1.2 mph1.9 kmh 29.82 in1009.8 mb - 0.00 in0.0 mm 0.00 in0.0 mm
09:35 AM 33.4°F0.8°C 32.9°F0.5°C 98% Calm Calm -- 29.82 in1009.8 mb - 0.00 in0.0 mm 0.00 in0.0 mm
09:40 AM 33.4°F0.8°C 32.9°F0.5°C 98% Calm Calm -- 29.83 in1010.2 mb - 0.00 in0.0 mm 0.00 in0.0 mm
09:45 AM 33.4°F0.8°C 32.9°F0.5°C 98% Calm Calm -- 29.83 in1010.2 mb - 0.00 in0.0 mm 0.00 in0.0 mm
09:50 AM 33.5°F0.8°C 33.0°F0.6°C 98% Calm Calm -- 29.83 in1010.2 mb - 0.00 in0.0 mm 0.00 in0.0 mm
09:55 AM 33.5°F0.8°C 33.0°F0.6°C 98% Calm Calm -- 29.83 in1010.2 mb - 0.00 in0.0 mm 0.00 in0.0 mm
10:00 AM 33.7°F0.9°C 33.2°F0.7°C 98% Calm Calm -- 29.84 in1010.5 mb - 0.00 in0.0 mm 0.00 in0.0 mm
10:05 AM 33.8°F1.0°C 33.3°F0.7°C 98% Calm Calm -- 29.84 in1010.5 mb - 0.00 in0.0 mm 0.00 in0.0 mm
10:10 AM 33.9°F1.1°C 33.4°F0.8°C 98% Calm Calm -- 29.84 in1010.5 mb - 0.00 in0.0 mm 0.00 in0.0 mm
10:15 AM 34.1°F1.2°C 33.6°F0.9°C 98% Calm Calm 3.5 mph5.6 kmh 29.84 in1010.5 mb - 0.00 in0.0 mm 0.00 in0.0 mm
10:20 AM 34.2°F1.2°C 33.7°F0.9°C 98% Calm Calm -- 29.84 in1010.5 mb - 0.00 in0.0 mm 0.00 in0.0 mm
10:25 AM 34.3°F1.3°C 33.8°F1.0°C 98% Calm Calm -- 29.84 in1010.5 mb - 0.00 in0.0 mm 0.00 in0.0 mm
10:30 AM 34.4°F1.3°C 33.9°F1.1°C 98% Calm Calm 2.3 mph3.7 kmh 29.84 in1010.5 mb - 0.00 in0.0 mm 0.00 in0.0 mm
10:35 AM 34.4°F1.3°C 33.9°F1.1°C 98% Calm Calm -- 29.84 in1010.5 mb - 0.01 in0.3 mm 0.01 in0.3 mm
10:40 AM 34.4°F1.3°C 33.9°F1.1°C 98% Calm Calm -- 29.85 in1010.8 mb - 0.00 in0.0 mm 0.01 in0.3 mm
10:45 AM 34.4°F1.3°C 33.9°F1.1°C 98% Calm Calm 1.2 mph1.9 kmh 29.85 in1010.8 mb - 0.00 in0.0 mm 0.01 in0.3 mm
10:50 AM 34.4°F1.3°C 33.9°F1.1°C 98% Calm Calm -- 29.85 in1010.8 mb - 0.00 in0.0 mm 0.01 in0.3 mm
10:55 AM 34.4°F1.3°C 33.9°F1.1°C 98% Calm Calm 1.2 mph1.9 kmh 29.86 in1011.2 mb - 0.00 in0.0 mm 0.01 in0.3 mm
11:00 AM 34.4°F1.3°C 33.9°F1.1°C 98% Calm Calm -- 29.86 in1011.2 mb - 0.00 in0.0 mm 0.01 in0.3 mm
11:05 AM 34.4°F1.3°C 33.9°F1.1°C 98% 1.2 mph WSW1.9 kmh WSW 5.8 mph9.3 kmh 29.86 in1011.2 mb - 0.01 in0.3 mm 0.02 in0.5 mm
11:10 AM 34.5°F1.4°C 34.0°F1.1°C 98% 3.5 mph SW5.6 kmh SW 11.5 mph18.5 kmh 29.86 in1011.2 mb - 0.01 in0.3 mm 0.03 in0.8 mm
11:15 AM 34.7°F1.5°C 34.2°F1.2°C 98% 3.5 mph WSW5.6 kmh WSW 4.6 mph7.4 kmh 29.86 in1011.2 mb - 0.00 in0.0 mm 0.03 in0.8 mm
11:20 AM 35.0°F1.7°C 34.5°F1.4°C 98% 3.5 mph W5.6 kmh W 9.2 mph14.8 kmh 29.86 in1011.2 mb - 0.04 in1.0 mm 0.07 in1.8 mm
11:25 AM 35.2°F1.8°C 34.7°F1.5°C 98% 4.6 mph WNW7.4 kmh WNW 5.8 mph9.3 kmh 29.87 in1011.5 mb - 0.00 in0.0 mm 0.07 in1.8 mm
11:30 AM 35.5°F1.9°C 35.0°F1.7°C 98% 1.2 mph SSW1.9 kmh SSW 4.6 mph7.4 kmh 29.87 in1011.5 mb - 0.00 in0.0 mm 0.07 in1.8 mm
11:35 AM 35.8°F2.1°C 35.0°F1.7°C 97% 3.5 mph WNW5.6 kmh WNW 5.8 mph9.3 kmh 29.87 in1011.5 mb - 0.00 in0.0 mm 0.07 in1.8 mm
11:40 AM 36.1°F2.3°C 35.4°F1.9°C 97% 3.5 mph NW5.6 kmh NW 5.8 mph9.3 kmh 29.87 in1011.5 mb - 0.00 in0.0 mm 0.07 in1.8 mm
11:45 AM 36.7°F2.6°C 35.7°F2.1°C 96% 5.8 mph WNW9.3 kmh WNW 15.0 mph24.1 kmh 29.87 in1011.5 mb - 0.00 in0.0 mm 0.07 in1.8 mm
11:50 AM 37.4°F3.0°C 36.1°F2.3°C 95% 1.2 mph WSW1.9 kmh WSW 11.5 mph18.5 kmh 29.88 in1011.9 mb - 0.00 in0.0 mm 0.07 in1.8 mm
11:55 AM 37.7°F3.2°C 35.6°F2.0°C 92% 2.3 mph WSW3.7 kmh WSW 2.3 mph3.7 kmh 29.89 in1012.2 mb - 0.00 in0.0 mm 0.07 in1.8 mm
12:00 PM 37.9°F3.3°C 35.2°F1.8°C 90% 4.6 mph WNW7.4 kmh WNW 9.2 mph14.8 kmh 29.89 in1012.2 mb - 0.00 in0.0 mm 0.07 in1.8 mm
12:05 PM 37.9°F3.3°C 34.6°F1.4°C 88% 5.8 mph W9.3 kmh W 8.1 mph13.0 kmh 29.89 in1012.2 mb - 0.00 in0.0 mm 0.07 in1.8 mm
12:10 PM 37.6°F3.1°C 34.1°F1.2°C 87% 4.6 mph W7.4 kmh W 6.9 mph11.1 kmh 29.89 in1012.2 mb - 0.00 in0.0 mm 0.07 in1.8 mm
12:15 PM 37.5°F3.1°C 34.0°F1.1°C 87% 4.6 mph W7.4 kmh W 12.7 mph20.4 kmh 29.90 in1012.5 mb - 0.00 in0.0 mm 0.07 in1.8 mm
12:20 PM 37.3°F2.9°C 33.5°F0.8°C 86% 5.8 mph WNW9.3 kmh WNW 11.5 mph18.5 kmh 29.90 in1012.5 mb - 0.00 in0.0 mm 0.07 in1.8 mm
12:25 PM 37.3°F2.9°C 33.2°F0.7°C 85% 4.6 mph NW7.4 kmh NW 8.1 mph13.0 kmh 29.90 in1012.5 mb - 0.00 in0.0 mm 0.07 in1.8 mm
12:30 PM 37.3°F2.9°C 33.2°F0.7°C 85% 6.9 mph NW11.1 kmh NW 12.7 mph20.4 kmh 29.91 in1012.9 mb - 0.00 in0.0 mm 0.07 in1.8 mm
12:35 PM 37.3°F2.9°C 33.2°F0.7°C 85% 3.5 mph NW5.6 kmh NW 5.8 mph9.3 kmh 29.91 in1012.9 mb - 0.00 in0.0 mm 0.07 in1.8 mm
12:40 PM 37.2°F2.9°C 32.8°F0.4°C 84% 6.9 mph WNW11.1 kmh WNW 10.4 mph16.7 kmh 29.91 in1012.9 mb - 0.00 in0.0 mm 0.07 in1.8 mm
12:45 PM 37.0°F2.8°C 32.3°F0.2°C 83% 2.3 mph WSW3.7 kmh WSW 2.3 mph3.7 kmh 29.92 in1013.2 mb - 0.00 in0.0 mm 0.07 in1.8 mm
12:50 PM 36.9°F2.7°C 32.5°F0.3°C 84% 4.6 mph W7.4 kmh W 4.6 mph7.4 kmh 29.93 in1013.5 mb - 0.00 in0.0 mm 0.07 in1.8 mm
12:55 PM 36.8°F2.7°C 32.4°F0.2°C 84% 5.8 mph NNW9.3 kmh NNW 6.9 mph11.1 kmh 29.93 in1013.5 mb - 0.00 in0.0 mm 0.07 in1.8 mm
01:00 PM 36.5°F2.5°C 31.8°F-0.1°C 83% 4.6 mph WNW7.4 kmh WNW 6.9 mph11.1 kmh 29.93 in1013.5 mb - 0.00 in0.0 mm 0.07 in1.8 mm
01:05 PM 36.3°F2.4°C 31.6°F-0.2°C 83% 1.2 mph W1.9 kmh W 6.9 mph11.1 kmh 29.93 in1013.5 mb - 0.00 in0.0 mm 0.07 in1.8 mm
01:10 PM 36.2°F2.3°C 31.3°F-0.4°C 82% 3.5 mph W5.6 kmh W 10.4 mph16.7 kmh 29.93 in1013.5 mb - 0.00 in0.0 mm 0.07 in1.8 mm
01:15 PM 36.3°F2.4°C 31.3°F-0.4°C 82% 4.6 mph W7.4 kmh W 6.9 mph11.1 kmh 29.93 in1013.5 mb - 0.00 in0.0 mm 0.07 in1.8 mm
01:20 PM 36.4°F2.4°C 31.4°F-0.3°C 82% 2.3 mph WSW3.7 kmh WSW 9.2 mph14.8 kmh 29.93 in1013.5 mb - 0.00 in0.0 mm 0.07 in1.8 mm
01:25 PM 36.3°F2.4°C 31.0°F-0.6°C 81% 3.5 mph W5.6 kmh W 8.1 mph13.0 kmh 29.94 in1013.9 mb - 0.00 in0.0 mm 0.07 in1.8 mm
01:30 PM 36.1°F2.3°C 30.8°F-0.7°C 81% 3.5 mph WSW5.6 kmh WSW 4.6 mph7.4 kmh 29.95 in1014.2 mb - 0.00 in0.0 mm 0.07 in1.8 mm
01:35 PM 36.0°F2.2°C 30.7°F-0.7°C 81% 4.6 mph W7.4 kmh W 10.4 mph16.7 kmh 29.95 in1014.2 mb - 0.00 in0.0 mm 0.07 in1.8 mm
01:40 PM 35.9°F2.2°C 30.0°F-1.1°C 79% 5.8 mph WSW9.3 kmh WSW 9.2 mph14.8 kmh 29.95 in1014.2 mb - 0.00 in0.0 mm 0.07 in1.8 mm
01:45 PM 35.9°F2.2°C 30.3°F-0.9°C 80% 2.3 mph W3.7 kmh W 3.5 mph5.6 kmh 29.95 in1014.2 mb - 0.00 in0.0 mm 0.07 in1.8 mm
01:50 PM 35.9°F2.2°C 30.3°F-0.9°C 80% 3.5 mph W5.6 kmh W 6.9 mph11.1 kmh 29.95 in1014.2 mb - 0.00 in0.0 mm 0.07 in1.8 mm
01:55 PM 35.8°F2.1°C 30.2°F-1.0°C 80% 2.3 mph NW3.7 kmh NW 3.5 mph5.6 kmh 29.95 in1014.2 mb - 0.00 in0.0 mm 0.07 in1.8 mm
02:00 PM 35.8°F2.1°C 30.2°F-1.0°C 80% 1.2 mph WSW1.9 kmh WSW 3.5 mph5.6 kmh 29.95 in1014.2 mb - 0.00 in0.0 mm 0.07 in1.8 mm
02:05 PM 35.8°F2.1°C 30.2°F-1.0°C 80% 3.5 mph WNW5.6 kmh WNW 10.4 mph16.7 kmh 29.95 in1014.2 mb - 0.00 in0.0 mm 0.07 in1.8 mm
02:10 PM 35.7°F2.1°C 29.8°F-1.2°C 79% 4.6 mph WNW7.4 kmh WNW 6.9 mph11.1 kmh 29.95 in1014.2 mb - 0.00 in0.0 mm 0.07 in1.8 mm
02:15 PM 35.7°F2.1°C 29.9°F-1.2°C 79% 5.8 mph NW9.3 kmh NW 13.8 mph22.2 kmh 29.95 in1014.2 mb - 0.00 in0.0 mm 0.07 in1.8 mm
02:20 PM 35.8°F2.1°C 30.2°F-1.0°C 80% 5.8 mph WNW9.3 kmh WNW 10.4 mph16.7 kmh 29.96 in1014.6 mb - 0.00 in0.0 mm 0.07 in1.8 mm
02:25 PM 35.7°F2.1°C 29.9°F-1.2°C 79% 2.3 mph NW3.7 kmh NW 6.9 mph11.1 kmh 29.96 in1014.6 mb - 0.00 in0.0 mm 0.07 in1.8 mm
02:30 PM 35.7°F2.1°C 29.5°F-1.4°C 78% 6.9 mph WNW11.1 kmh WNW 10.4 mph16.7 kmh 29.96 in1014.6 mb - 0.00 in0.0 mm 0.07 in1.8 mm
02:35 PM 35.7°F2.1°C 29.8°F-1.2°C 79% 2.3 mph WSW3.7 kmh WSW 8.1 mph13.0 kmh 29.96 in1014.6 mb - 0.00 in0.0 mm 0.07 in1.8 mm
02:40 PM 35.6°F2.0°C 29.4°F-1.4°C 78% 4.6 mph NW7.4 kmh NW 6.9 mph11.1 kmh 29.96 in1014.6 mb - 0.00 in0.0 mm 0.07 in1.8 mm
02:45 PM 35.6°F2.0°C 29.7°F-1.3°C 79% 3.5 mph WSW5.6 kmh WSW 13.8 mph22.2 kmh 29.97 in1014.9 mb - 0.00 in0.0 mm 0.07 in1.8 mm
02:50 PM 35.6°F2.0°C 29.4°F-1.4°C 78% 4.6 mph WNW7.4 kmh WNW 6.9 mph11.1 kmh 29.97 in1014.9 mb - 0.00 in0.0 mm 0.07 in1.8 mm
02:55 PM 35.7°F2.1°C 29.5°F-1.4°C 78% 4.6 mph WSW7.4 kmh WSW 4.6 mph7.4 kmh 29.97 in1014.9 mb - 0.00 in0.0 mm 0.07 in1.8 mm
03:00 PM 35.6°F2.0°C 29.1°F-1.6°C 77% 4.6 mph WNW7.4 kmh WNW 11.5 mph18.5 kmh 29.97 in1014.9 mb - 0.00 in0.0 mm 0.07 in1.8 mm
03:05 PM 35.7°F2.1°C 29.5°F-1.4°C 78% 2.3 mph WNW3.7 kmh WNW 8.1 mph13.0 kmh 29.97 in1014.9 mb - 0.00 in0.0 mm 0.07 in1.8 mm
03:10 PM 35.7°F2.1°C 29.2°F-1.6°C 77% 3.5 mph NW5.6 kmh NW 5.8 mph9.3 kmh 29.98 in1015.2 mb - 0.00 in0.0 mm 0.07 in1.8 mm
03:15 PM 35.7°F2.1°C 28.9°F-1.7°C 76% 6.9 mph NW11.1 kmh NW 15.0 mph24.1 kmh 29.98 in1015.2 mb - 0.00 in0.0 mm 0.07 in1.8 mm
03:20 PM 35.4°F1.9°C 28.6°F-1.9°C 76% 5.8 mph NW9.3 kmh NW 10.4 mph16.7 kmh 29.99 in1015.6 mb - 0.00 in0.0 mm 0.07 in1.8 mm
03:25 PM 35.2°F1.8°C 28.4°F-2.0°C 76% 4.6 mph WNW7.4 kmh WNW 10.4 mph16.7 kmh 30.00 in1015.9 mb - 0.00 in0.0 mm 0.07 in1.8 mm
03:30 PM 35.0°F1.7°C 27.9°F-2.3°C 75% 6.9 mph NW11.1 kmh NW 15.0 mph24.1 kmh 30.00 in1015.9 mb - 0.00 in0.0 mm 0.07 in1.8 mm
03:35 PM 34.8°F1.6°C 28.0°F-2.2°C 76% 5.8 mph NW9.3 kmh NW 8.1 mph13.0 kmh 30.00 in1015.9 mb - 0.00 in0.0 mm 0.07 in1.8 mm
03:40 PM 34.8°F1.6°C 28.0°F-2.2°C 76% 2.3 mph NW3.7 kmh NW 5.8 mph9.3 kmh 30.00 in1015.9 mb - 0.00 in0.0 mm 0.07 in1.8 mm
03:45 PM 34.7°F1.5°C 27.9°F-2.3°C 76% 6.9 mph NW11.1 kmh NW 9.2 mph14.8 kmh 30.00 in1015.9 mb - 0.00 in0.0 mm 0.07 in1.8 mm
03:50 PM 34.8°F1.6°C 28.0°F-2.2°C 76% 4.6 mph W7.4 kmh W 9.2 mph14.8 kmh 30.01 in1016.3 mb - 0.00 in0.0 mm 0.07 in1.8 mm
03:55 PM 34.6°F1.4°C 27.5°F-2.5°C 75% 6.9 mph NW11.1 kmh NW 11.5 mph18.5 kmh 30.01 in1016.3 mb - 0.00 in0.0 mm 0.07 in1.8 mm
04:00 PM 34.4°F1.3°C 27.3°F-2.6°C 75% 6.9 mph WNW11.1 kmh WNW 11.5 mph18.5 kmh 30.01 in1016.3 mb - 0.00 in0.0 mm 0.07 in1.8 mm
04:05 PM 34.4°F1.3°C 27.6°F-2.4°C 76% 3.5 mph W5.6 kmh W 4.6 mph7.4 kmh 30.01 in1016.3 mb - 0.00 in0.0 mm 0.07 in1.8 mm
04:10 PM 34.4°F1.3°C 27.9°F-2.3°C 77% 4.6 mph NW7.4 kmh NW 8.1 mph13.0 kmh 30.02 in1016.6 mb - 0.00 in0.0 mm 0.07 in1.8 mm
04:15 PM 34.4°F1.3°C 27.6°F-2.4°C 76% 4.6 mph W7.4 kmh W 8.1 mph13.0 kmh 30.02 in1016.6 mb - 0.00 in0.0 mm 0.07 in1.8 mm
04:20 PM 34.4°F1.3°C 27.6°F-2.4°C 76% 2.3 mph NW3.7 kmh NW 3.5 mph5.6 kmh 30.02 in1016.6 mb - 0.00 in0.0 mm 0.07 in1.8 mm
04:25 PM 34.4°F1.3°C 27.9°F-2.3°C 77% Calm Calm 4.6 mph7.4 kmh 30.03 in1016.9 mb - 0.00 in0.0 mm 0.07 in1.8 mm
04:30 PM 34.3°F1.3°C 27.5°F-2.5°C 76% 6.9 mph NNW11.1 kmh NNW 6.9 mph11.1 kmh 30.03 in1016.9 mb - 0.00 in0.0 mm 0.07 in1.8 mm
04:35 PM 34.2°F1.2°C 27.4°F-2.6°C 76% 2.3 mph WNW3.7 kmh WNW 9.2 mph14.8 kmh 30.04 in1017.3 mb - 0.00 in0.0 mm 0.07 in1.8 mm
04:40 PM 34.1°F1.2°C 27.3°F-2.6°C 76% 5.8 mph NNW9.3 kmh NNW 9.2 mph14.8 kmh 30.05 in1017.6 mb - 0.00 in0.0 mm 0.07 in1.8 mm
04:45 PM 33.9°F1.1°C 27.2°F-2.7°C 76% 4.6 mph NW7.4 kmh NW 6.9 mph11.1 kmh 30.05 in1017.6 mb - 0.00 in0.0 mm 0.07 in1.8 mm
04:50 PM 33.9°F1.1°C 27.1°F-2.7°C 76% 5.8 mph NW9.3 kmh NW 11.5 mph18.5 kmh 30.05 in1017.6 mb - 0.00 in0.0 mm 0.07 in1.8 mm
04:55 PM 33.8°F1.0°C 27.0°F-2.8°C 76% 6.9 mph WNW11.1 kmh WNW 13.8 mph22.2 kmh 30.06 in1017.9 mb - 0.00 in0.0 mm 0.07 in1.8 mm
05:00 PM 33.6°F0.9°C 26.8°F-2.9°C 76% 4.6 mph NW7.4 kmh NW 11.5 mph18.5 kmh 30.06 in1017.9 mb - 0.00 in0.0 mm 0.07 in1.8 mm
05:05 PM 33.5°F0.8°C 26.7°F-2.9°C 76% 4.6 mph NW7.4 kmh NW 8.1 mph13.0 kmh 30.06 in1017.9 mb - 0.00 in0.0 mm 0.07 in1.8 mm
05:10 PM 33.4°F0.8°C 26.6°F-3.0°C 76% 5.8 mph NW9.3 kmh NW 8.1 mph13.0 kmh 30.07 in1018.3 mb - 0.00 in0.0 mm 0.07 in1.8 mm
05:15 PM 33.4°F0.8°C 26.9°F-2.8°C 77% 4.6 mph WNW7.4 kmh WNW 8.1 mph13.0 kmh 30.07 in1018.3 mb - 0.00 in0.0 mm 0.07 in1.8 mm
05:20 PM 33.3°F0.7°C 26.9°F-2.8°C 77% 3.5 mph NW5.6 kmh NW 8.1 mph13.0 kmh 30.07 in1018.3 mb - 0.00 in0.0 mm 0.07 in1.8 mm
05:25 PM 33.3°F0.7°C 26.9°F-2.8°C 77% 5.8 mph NW9.3 kmh NW 9.2 mph14.8 kmh 30.08 in1018.6 mb - 0.00 in0.0 mm 0.07 in1.8 mm
05:30 PM 33.3°F0.7°C 26.9°F-2.8°C 77% 5.8 mph NW9.3 kmh NW 10.4 mph16.7 kmh 30.08 in1018.6 mb - 0.00 in0.0 mm 0.07 in1.8 mm
05:35 PM 33.3°F0.7°C 26.5°F-3.1°C 76% 5.8 mph NW9.3 kmh NW 8.1 mph13.0 kmh 30.08 in1018.6 mb - 0.00 in0.0 mm 0.07 in1.8 mm
05:40 PM 33.2°F0.7°C 26.5°F-3.1°C 76% 5.8 mph WNW9.3 kmh WNW 6.9 mph11.1 kmh 30.09 in1019.0 mb - 0.00 in0.0 mm 0.07 in1.8 mm
05:45 PM 33.2°F0.7°C 26.5°F-3.1°C 76% 4.6 mph NW7.4 kmh NW 11.5 mph18.5 kmh 30.10 in1019.3 mb - 0.00 in0.0 mm 0.07 in1.8 mm
05:50 PM 33.1°F0.6°C 26.7°F-2.9°C 77% 3.5 mph NW5.6 kmh NW 6.9 mph11.1 kmh 30.10 in1019.3 mb - 0.00 in0.0 mm 0.07 in1.8 mm
05:55 PM 33.0°F0.6°C 26.6°F-3.0°C 77% 5.8 mph NNW9.3 kmh NNW 5.8 mph9.3 kmh 30.11 in1019.6 mb - 0.00 in0.0 mm 0.07 in1.8 mm
06:00 PM 32.8°F0.4°C 26.4°F-3.1°C 77% 4.6 mph NW7.4 kmh NW 9.2 mph14.8 kmh 30.11 in1019.6 mb - 0.00 in0.0 mm 0.07 in1.8 mm
06:05 PM 32.7°F0.4°C 26.3°F-3.2°C 77% 3.5 mph N5.6 kmh N 9.2 mph14.8 kmh 30.12 in1020.0 mb - 0.00 in0.0 mm 0.07 in1.8 mm
06:10 PM 32.6°F0.3°C 26.2°F-3.2°C 77% 4.6 mph NNE7.4 kmh NNE 4.6 mph7.4 kmh 30.12 in1020.0 mb - 0.00 in0.0 mm 0.07 in1.8 mm
06:15 PM 32.5°F0.3°C 26.1°F-3.3°C 77% 3.5 mph NNW5.6 kmh NNW 6.9 mph11.1 kmh 30.13 in1020.3 mb - 0.00 in0.0 mm 0.07 in1.8 mm
06:20 PM 32.4°F0.2°C 26.0°F-3.3°C 77% 4.6 mph NW7.4 kmh NW 8.1 mph13.0 kmh 30.13 in1020.3 mb - 0.00 in0.0 mm 0.07 in1.8 mm
06:25 PM 32.3°F0.2°C 25.9°F-3.4°C 77% 5.8 mph NNW9.3 kmh NNW 8.1 mph13.0 kmh 30.13 in1020.3 mb - 0.00 in0.0 mm 0.07 in1.8 mm
06:30 PM 32.2°F0.1°C 25.8°F-3.4°C 77% 2.3 mph NNW3.7 kmh NNW 2.3 mph3.7 kmh 30.13 in1020.3 mb - 0.00 in0.0 mm 0.07 in1.8 mm
06:35 PM 32.1°F0.1°C 25.7°F-3.5°C 77% 3.5 mph NW5.6 kmh NW 4.6 mph7.4 kmh 30.13 in1020.3 mb - 0.00 in0.0 mm 0.07 in1.8 mm
06:40 PM 32.1°F0.1°C 25.7°F-3.5°C 77% 5.8 mph NW9.3 kmh NW 9.2 mph14.8 kmh 30.14 in1020.7 mb - 0.00 in0.0 mm 0.07 in1.8 mm
06:45 PM 32.0°F0.0°C 25.3°F-3.7°C 76% 6.9 mph NW11.1 kmh NW 11.5 mph18.5 kmh 30.14 in1020.7 mb - 0.00 in0.0 mm 0.07 in1.8 mm
06:50 PM 32.0°F0.0°C 25.6°F-3.6°C 77% 5.8 mph NW9.3 kmh NW 5.8 mph9.3 kmh 30.15 in1021.0 mb - 0.00 in0.0 mm 0.07 in1.8 mm
06:55 PM 32.0°F0.0°C 25.3°F-3.7°C 76% 3.5 mph NW5.6 kmh NW 8.1 mph13.0 kmh 30.15 in1021.0 mb - 0.00 in0.0 mm 0.07 in1.8 mm
07:00 PM 32.0°F0.0°C 25.0°F-3.9°C 75% 5.8 mph NNW9.3 kmh NNW 11.5 mph18.5 kmh 30.15 in1021.0 mb - 0.00 in0.0 mm 0.07 in1.8 mm
07:05 PM 31.9°F-0.1°C 24.9°F-3.9°C 75% 5.8 mph NW9.3 kmh NW 8.1 mph13.0 kmh 30.16 in1021.3 mb - 0.00 in0.0 mm 0.07 in1.8 mm
07:10 PM 31.8°F-0.1°C 24.8°F-4.0°C 75% 5.8 mph NW9.3 kmh NW 12.7 mph20.4 kmh 30.16 in1021.3 mb - 0.00 in0.0 mm 0.07 in1.8 mm
07:15 PM 31.7°F-0.2°C 24.7°F-4.1°C 75% 8.1 mph NW13.0 kmh NW 11.5 mph18.5 kmh 30.17 in1021.7 mb - 0.00 in0.0 mm 0.07 in1.8 mm
07:20 PM 31.7°F-0.2°C 24.7°F-4.1°C 75% 5.8 mph NW9.3 kmh NW 11.5 mph18.5 kmh 30.18 in1022.0 mb - 0.00 in0.0 mm 0.07 in1.8 mm
07:25 PM 31.6°F-0.2°C 24.6°F-4.1°C 75% 4.6 mph NW7.4 kmh NW 10.4 mph16.7 kmh 30.18 in1022.0 mb - 0.00 in0.0 mm 0.07 in1.8 mm
07:30 PM 31.5°F-0.3°C 24.5°F-4.2°C 75% 8.1 mph NW13.0 kmh NW 11.5 mph18.5 kmh 30.18 in1022.0 mb - 0.00 in0.0 mm 0.07 in1.8 mm
07:35 PM 31.5°F-0.3°C 24.5°F-4.2°C 75% 5.8 mph NW9.3 kmh NW 11.5 mph18.5 kmh 30.18 in1022.0 mb - 0.00 in0.0 mm 0.07 in1.8 mm
07:40 PM 31.5°F-0.3°C 24.5°F-4.2°C 75% 4.6 mph WNW7.4 kmh WNW 6.9 mph11.1 kmh 30.19 in1022.4 mb - 0.00 in0.0 mm 0.07 in1.8 mm
07:45 PM 31.5°F-0.3°C 24.5°F-4.2°C 75% 6.9 mph NW11.1 kmh NW 11.5 mph18.5 kmh 30.20 in1022.7 mb - 0.00 in0.0 mm 0.07 in1.8 mm
07:50 PM 31.5°F-0.3°C 24.8°F-4.0°C 76% 4.6 mph NW7.4 kmh NW 8.1 mph13.0 kmh 30.20 in1022.7 mb - 0.00 in0.0 mm 0.07 in1.8 mm
07:55 PM 31.5°F-0.3°C 24.5°F-4.2°C 75% 4.6 mph NW7.4 kmh NW 5.8 mph9.3 kmh 30.20 in1022.7 mb - 0.00 in0.0 mm 0.07 in1.8 mm
08:00 PM 31.4°F-0.3°C 24.7°F-4.1°C 76% 6.9 mph NW11.1 kmh NW 11.5 mph18.5 kmh 30.20 in1022.7 mb - 0.00 in0.0 mm 0.07 in1.8 mm
08:05 PM 31.3°F-0.4°C 24.6°F-4.1°C 76% 5.8 mph NNW9.3 kmh NNW 6.9 mph11.1 kmh 30.21 in1023.0 mb - 0.00 in0.0 mm 0.07 in1.8 mm
08:10 PM 31.2°F-0.4°C 24.2°F-4.3°C 75% 5.8 mph NW9.3 kmh NW 9.2 mph14.8 kmh 30.21 in1023.0 mb - 0.00 in0.0 mm 0.07 in1.8 mm
08:15 PM 31.2°F-0.4°C 24.2°F-4.3°C 75% 8.1 mph NW13.0 kmh NW 12.7 mph20.4 kmh 30.22 in1023.4 mb - 0.00 in0.0 mm 0.07 in1.8 mm
08:20 PM 31.1°F-0.5°C 24.1°F-4.4°C 75% 6.9 mph NW11.1 kmh NW 9.2 mph14.8 kmh 30.22 in1023.4 mb - 0.00 in0.0 mm 0.07 in1.8 mm
08:25 PM 31.0°F-0.6°C 24.0°F-4.4°C 75% 6.9 mph WNW11.1 kmh WNW 10.4 mph16.7 kmh 30.22 in1023.4 mb - 0.00 in0.0 mm 0.07 in1.8 mm
08:30 PM 30.8°F-0.7°C 24.2°F-4.3°C 76% 5.8 mph WNW9.3 kmh WNW 8.1 mph13.0 kmh 30.23 in1023.7 mb - 0.00 in0.0 mm 0.07 in1.8 mm
08:35 PM 30.8°F-0.7°C 23.8°F-4.6°C 75% 5.8 mph NW9.3 kmh NW 10.4 mph16.7 kmh 30.23 in1023.7 mb - 0.00 in0.0 mm 0.07 in1.8 mm
08:40 PM 30.7°F-0.7°C 23.7°F-4.6°C 75% 2.3 mph WNW3.7 kmh WNW 3.5 mph5.6 kmh 30.23 in1023.7 mb - 0.00 in0.0 mm 0.07 in1.8 mm
08:45 PM 30.6°F-0.8°C 23.3°F-4.8°C 74% 5.8 mph NW9.3 kmh NW 8.1 mph13.0 kmh 30.23 in1023.7 mb - 0.00 in0.0 mm 0.07 in1.8 mm
08:50 PM 30.5°F-0.8°C 23.2°F-4.9°C 74% 4.6 mph NW7.4 kmh NW 11.5 mph18.5 kmh 30.23 in1023.7 mb - 0.00 in0.0 mm 0.07 in1.8 mm
08:55 PM 30.5°F-0.8°C 23.2°F-4.9°C 74% 4.6 mph NNW7.4 kmh NNW 5.8 mph9.3 kmh 30.24 in1024.0 mb - 0.00 in0.0 mm 0.07 in1.8 mm
09:00 PM 30.4°F-0.9°C 22.8°F-5.1°C 73% 8.1 mph NW13.0 kmh NW 11.5 mph18.5 kmh 30.24 in1024.0 mb - 0.00 in0.0 mm 0.07 in1.8 mm
09:05 PM 30.4°F-0.9°C 23.1°F-4.9°C 74% 2.3 mph N3.7 kmh N 3.5 mph5.6 kmh 30.25 in1024.4 mb - 0.00 in0.0 mm 0.07 in1.8 mm
09:10 PM 30.4°F-0.9°C 22.8°F-5.1°C 73% 8.1 mph NW13.0 kmh NW 11.5 mph18.5 kmh 30.25 in1024.4 mb - 0.00 in0.0 mm 0.07 in1.8 mm
09:15 PM 30.3°F-0.9°C 22.7°F-5.2°C 73% 5.8 mph WNW9.3 kmh WNW 6.9 mph11.1 kmh 30.25 in1024.4 mb - 0.00 in0.0 mm 0.07 in1.8 mm
09:20 PM 30.2°F-1.0°C 21.9°F-5.6°C 71% 4.6 mph NW7.4 kmh NW 6.9 mph11.1 kmh 30.25 in1024.4 mb - 0.00 in0.0 mm 0.07 in1.8 mm
09:25 PM 30.2°F-1.0°C 21.9°F-5.6°C 71% 4.6 mph WNW7.4 kmh WNW 13.8 mph22.2 kmh 30.26 in1024.7 mb - 0.00 in0.0 mm 0.07 in1.8 mm
09:30 PM 30.1°F-1.1°C 21.5°F-5.8°C 70% 6.9 mph NW11.1 kmh NW 9.2 mph14.8 kmh 30.25 in1024.4 mb - 0.00 in0.0 mm 0.07 in1.8 mm
09:35 PM 30.1°F-1.1°C 21.8°F-5.7°C 71% 4.6 mph WNW7.4 kmh WNW 8.1 mph13.0 kmh 30.26 in1024.7 mb - 0.00 in0.0 mm 0.07 in1.8 mm
09:40 PM 30.1°F-1.1°C 22.2°F-5.4°C 72% 4.6 mph NNW7.4 kmh NNW 11.5 mph18.5 kmh 30.27 in1025.1 mb - 0.00 in0.0 mm 0.07 in1.8 mm
09:45 PM 30.1°F-1.1°C 21.8°F-5.7°C 71% 4.6 mph NW7.4 kmh NW 8.1 mph13.0 kmh 30.27 in1025.1 mb - 0.00 in0.0 mm 0.07 in1.8 mm
09:50 PM 30.1°F-1.1°C 22.2°F-5.4°C 72% 3.5 mph NW5.6 kmh NW 9.2 mph14.8 kmh 30.27 in1025.1 mb - 0.00 in0.0 mm 0.07 in1.8 mm
09:55 PM 30.0°F-1.1°C 22.1°F-5.5°C 72% 4.6 mph NW7.4 kmh NW 8.1 mph13.0 kmh 30.27 in1025.1 mb - 0.00 in0.0 mm 0.07 in1.8 mm
10:00 PM 30.0°F-1.1°C 22.1°F-5.5°C 72% 3.5 mph W5.6 kmh W 5.8 mph9.3 kmh 30.27 in1025.1 mb - 0.00 in0.0 mm 0.07 in1.8 mm
10:05 PM 29.9°F-1.2°C 22.3°F-5.4°C 73% 3.5 mph N5.6 kmh N 5.8 mph9.3 kmh 30.27 in1025.1 mb - 0.00 in0.0 mm 0.07 in1.8 mm
10:10 PM 29.8°F-1.2°C 21.9°F-5.6°C 72% 4.6 mph NW7.4 kmh NW 6.9 mph11.1 kmh 30.27 in1025.1 mb - 0.00 in0.0 mm 0.07 in1.8 mm
10:15 PM 29.8°F-1.2°C 21.9°F-5.6°C 72% 3.5 mph NW5.6 kmh NW 11.5 mph18.5 kmh 30.27 in1025.1 mb - 0.00 in0.0 mm 0.07 in1.8 mm
10:20 PM 29.8°F-1.2°C 21.9°F-5.6°C 72% 4.6 mph NW7.4 kmh NW 11.5 mph18.5 kmh 30.28 in1025.4 mb - 0.00 in0.0 mm 0.07 in1.8 mm
10:25 PM 29.8°F-1.2°C 21.5°F-5.8°C 71% 3.5 mph N5.6 kmh N 5.8 mph9.3 kmh 30.29 in1025.7 mb - 0.00 in0.0 mm 0.07 in1.8 mm
10:30 PM 29.9°F-1.2°C 21.6°F-5.8°C 71% 6.9 mph NW11.1 kmh NW 10.4 mph16.7 kmh 30.29 in1025.7 mb - 0.00 in0.0 mm 0.07 in1.8 mm
10:35 PM 29.8°F-1.2°C 21.2°F-6.0°C 70% 5.8 mph NW9.3 kmh NW 9.2 mph14.8 kmh 30.29 in1025.7 mb - 0.00 in0.0 mm 0.07 in1.8 mm
10:40 PM 29.7°F-1.3°C 21.1°F-6.1°C 70% 6.9 mph N11.1 kmh N 11.5 mph18.5 kmh 30.30 in1026.1 mb - 0.00 in0.0 mm 0.07 in1.8 mm
10:45 PM 29.7°F-1.3°C 21.1°F-6.1°C 70% 6.9 mph N11.1 kmh N 10.4 mph16.7 kmh 30.30 in1026.1 mb - 0.00 in0.0 mm 0.07 in1.8 mm
10:50 PM 29.7°F-1.3°C 21.1°F-6.1°C 70% 1.2 mph NW1.9 kmh NW 8.1 mph13.0 kmh 30.30 in1026.1 mb - 0.00 in0.0 mm 0.07 in1.8 mm
10:55 PM 29.6°F-1.3°C 21.0°F-6.1°C 70% 4.6 mph WNW7.4 kmh WNW 9.2 mph14.8 kmh 30.31 in1026.4 mb - 0.00 in0.0 mm 0.07 in1.8 mm
11:00 PM 29.6°F-1.3°C 21.0°F-6.1°C 70% 5.8 mph N9.3 kmh N 10.4 mph16.7 kmh 30.31 in1026.4 mb - 0.00 in0.0 mm 0.07 in1.8 mm
11:05 PM 29.6°F-1.3°C 21.3°F-5.9°C 71% 3.5 mph NW5.6 kmh NW 6.9 mph11.1 kmh 30.31 in1026.4 mb - 0.00 in0.0 mm 0.07 in1.8 mm
11:10 PM 29.5°F-1.4°C 21.3°F-5.9°C 71% 2.3 mph N3.7 kmh N 3.5 mph5.6 kmh 30.32 in1026.8 mb - 0.00 in0.0 mm 0.07 in1.8 mm
11:15 PM 29.5°F-1.4°C 21.3°F-5.9°C 71% 5.8 mph NW9.3 kmh NW 8.1 mph13.0 kmh 30.32 in1026.8 mb - 0.00 in0.0 mm 0.07 in1.8 mm
11:20 PM 29.4°F-1.4°C 21.2°F-6.0°C 71% 3.5 mph WNW5.6 kmh WNW 4.6 mph7.4 kmh 30.33 in1027.1 mb - 0.00 in0.0 mm 0.07 in1.8 mm
11:25 PM 29.4°F-1.4°C 21.5°F-5.8°C 72% 3.5 mph W5.6 kmh W 10.4 mph16.7 kmh 30.33 in1027.1 mb - 0.00 in0.0 mm 0.07 in1.8 mm
11:30 PM 29.3°F-1.5°C 21.1°F-6.1°C 71% 1.2 mph NW1.9 kmh NW 9.2 mph14.8 kmh 30.33 in1027.1 mb - 0.00 in0.0 mm 0.07 in1.8 mm
11:35 PM 29.3°F-1.5°C 21.4°F-5.9°C 72% 6.9 mph WNW11.1 kmh WNW 11.5 mph18.5 kmh 30.34 in1027.4 mb - 0.00 in0.0 mm 0.07 in1.8 mm
11:40 PM 29.2°F-1.6°C 21.0°F-6.1°C 71% 8.1 mph NW13.0 kmh NW 10.4 mph16.7 kmh 30.34 in1027.4 mb - 0.00 in0.0 mm 0.07 in1.8 mm
11:45 PM 29.1°F-1.6°C 20.5°F-6.4°C 70% 9.2 mph NW14.8 kmh NW 11.5 mph18.5 kmh 30.34 in1027.4 mb - 0.00 in0.0 mm 0.07 in1.8 mm
11:50 PM 29.0°F-1.7°C 20.4°F-6.4°C 70% 6.9 mph NW11.1 kmh NW 10.4 mph16.7 kmh 30.34 in1027.4 mb - 0.00 in0.0 mm 0.07 in1.8 mm
11:55 PM 28.8°F-1.8°C 20.2°F-6.6°C 70% 3.5 mph WNW5.6 kmh WNW 3.5 mph5.6 kmh 30.34 in1027.4 mb - 0.00 in0.0 mm 0.07 in1.8 mm